Terminal Aerodrome Forecast
Issued by NWS

Home | Current Version | Previous Version | Graphics & Text | Print | Product List | Glossary Off
Versions: 1 2 3 4 5 6 7 8 9 10 11 12 13 14 15 16 17 18 19 20 21 22 23 24 25

000
FTUS43 KBIS 291743
TAFMOT
TAF
KMOT 291743Z 2918/3018 33014G22KT P6SM BKN035
      TEMPO 2918/2920 BKN028
     FM292200 35012KT P6SM SCT050
     FM300000 02007KT P6SM SKC
     FM300600 09004KT P6SM SKC
     FM301700 12011KT P6SM SCT200=

USA.gov is the U.S. government's official web portal to all federal, state and local government web resources and services.